createdAt,value
2022-09-28T00:00:33.159Z,98532.84
2022-09-28T00:05:34.999Z,98519.38
2022-09-28T00:10:36.715Z,98521.66
2022-09-28T00:15:38.266Z,98516.47
2022-09-28T00:20:39.814Z,98508.84
2022-09-28T00:25:41.351Z,98505.16
2022-09-28T00:30:42.919Z,98491.88
2022-09-28T00:35:44.596Z,98488.97
2022-09-28T00:40:46.194Z,98492.97
2022-09-28T00:46:06.724Z,98481.53
2022-09-28T00:51:12.331Z,98487.13
2022-09-28T00:56:19.221Z,98480.38
2022-09-28T01:01:21.695Z,98482.69
2022-09-28T01:06:28.178Z,98477.22
2022-09-28T01:11:32.868Z,98468.63
2022-09-28T01:16:58.486Z,98483.41
2022-09-28T01:22:22.982Z,98480.63
2022-09-28T01:27:45.173Z,98476.41
2022-09-28T01:32:51.537Z,98467.41
2022-09-28T01:38:01.734Z,98478.25
2022-09-28T01:43:26.642Z,98474.91
2022-09-28T01:48:37.938Z,98485.91
2022-09-28T01:53:44.825Z,98473.44
2022-09-28T01:58:51.538Z,98470.72
2022-09-28T02:04:03.261Z,98469.59
2022-09-28T02:09:11.617Z,98474.88
2022-09-28T02:14:17.392Z,98473.00
2022-09-28T02:19:27.815Z,98474.59
2022-09-28T02:25:12.985Z,98467.69
2022-09-28T02:30:14.710Z,98466.53
2022-09-28T02:35:19.084Z,98468.69
2022-09-28T02:40:24.090Z,98456.63
2022-09-28T02:45:34.461Z,98472.50
2022-09-28T02:51:06.152Z,98468.56
2022-09-28T02:56:26.695Z,98469.13
2022-09-28T03:02:01.546Z,98469.97
2022-09-28T03:07:23.521Z,98476.47
2022-09-28T03:12:29.323Z,98470.72
2022-09-28T03:17:30.884Z,98472.09
2022-09-28T03:22:32.382Z,98468.03
2022-09-28T03:27:34.146Z,98463.09
2022-09-28T03:32:35.867Z,98476.25
2022-09-28T03:37:38.140Z,98465.03
2022-09-28T03:42:40.218Z,98469.09
2022-09-28T03:47:46.167Z,98470.88
2022-09-28T03:52:47.690Z,98471.19
2022-09-28T03:57:56.143Z,98460.94
2022-09-28T04:02:57.682Z,98456.34
2022-09-28T04:07:59.331Z,98459.88
2022-09-28T04:13:00.905Z,98461.75
2022-09-28T04:18:02.469Z,98467.66
2022-09-28T04:23:04.013Z,98452.03
2022-09-28T04:28:24.037Z,98455.50
2022-09-28T04:33:25.650Z,98448.13
2022-09-28T04:38:48.731Z,98447.81
2022-09-28T04:43:48.770Z,98447.81
2022-09-28T04:48:51.527Z,98459.91
2022-09-28T04:53:53.092Z,98462.94
2022-09-28T04:58:54.644Z,98460.56
2022-09-28T05:03:56.647Z,98452.22
2022-09-28T05:08:58.259Z,98460.16
2022-09-28T05:13:59.994Z,98459.69
2022-09-28T05:19:01.605Z,98448.53
2022-09-28T05:24:07.459Z,98452.31
2022-09-28T05:29:09.112Z,98450.34
2022-09-28T05:34:10.751Z,98448.34
2022-09-28T05:39:12.397Z,98444.66
2022-09-28T05:44:14.084Z,98445.81
2022-09-28T05:49:15.660Z,98435.22
2022-09-28T05:54:17.414Z,98427.06
2022-09-28T05:59:19.138Z,98429.53
2022-09-28T06:04:20.960Z,98433.47
2022-09-28T06:09:25.911Z,98430.38
2022-09-28T06:14:27.753Z,98432.22
2022-09-28T06:19:29.514Z,98430.25
2022-09-28T06:24:31.249Z,98437.84
2022-09-28T06:29:32.910Z,98437.66
2022-09-28T06:34:35.031Z,98433.50
2022-09-28T06:39:36.577Z,98422.50
2022-09-28T06:44:38.122Z,98417.47
2022-09-28T06:49:39.666Z,98410.94
2022-09-28T06:54:41.206Z,98413.13
2022-09-28T06:59:42.872Z,98414.81
2022-09-28T07:04:44.428Z,98409.75
2022-09-28T07:09:50.233Z,98388.47
2022-09-28T07:14:57.372Z,98402.50
2022-09-28T07:20:03.179Z,98410.78
2022-09-28T07:25:12.805Z,98428.00
2022-09-28T07:30:14.700Z,98430.53
2022-09-28T07:35:16.352Z,98418.22
2022-09-28T07:40:36.511Z,98414.47
2022-09-28T07:45:38.584Z,98411.19
2022-09-28T07:50:40.247Z,98404.56
2022-09-28T07:55:41.770Z,98409.22
2022-09-28T08:00:45.463Z,98408.72
2022-09-28T08:05:47.549Z,98415.53
2022-09-28T08:10:50.987Z,98417.53
2022-09-28T08:15:53.625Z,98406.34
2022-09-28T08:21:27.565Z,98415.72
2022-09-28T08:26:29.264Z,98406.03
2022-09-28T08:31:31.239Z,98398.13
2022-09-28T08:36:33.533Z,98406.16
2022-09-28T08:42:04.174Z,98392.63
2022-09-28T08:47:33.368Z,98391.06
2022-09-28T08:52:40.101Z,98373.75
2022-09-28T08:57:57.942Z,98381.00
2022-09-28T09:03:03.065Z,98367.88
2022-09-28T09:08:13.601Z,98367.50
2022-09-28T09:13:38.040Z,98366.81
2022-09-28T09:18:56.710Z,98363.94
2022-09-28T09:24:10.744Z,98361.72
2022-09-28T09:29:36.487Z,98362.28
2022-09-28T09:35:04.289Z,98363.69
2022-09-28T09:40:20.871Z,98358.72
2022-09-28T09:45:55.995Z,98334.47
2022-09-28T09:51:03.437Z,98345.34
2022-09-28T09:56:17.068Z,98342.66
2022-09-28T10:01:22.896Z,98336.41
2022-09-28T10:06:33.761Z,98345.31
2022-09-28T10:11:39.708Z,98351.84
2022-09-28T10:16:43.055Z,98363.69
2022-09-28T10:21:46.873Z,98368.63
2022-09-28T10:26:53.103Z,98367.19
2022-09-28T10:31:55.641Z,98373.38
2022-09-28T10:37:01.243Z,98370.84
2022-09-28T10:42:08.195Z,98377.22
2022-09-28T10:47:16.084Z,98403.34
2022-09-28T10:52:49.866Z,98402.78
2022-09-28T10:57:51.581Z,98416.84
2022-09-28T11:02:53.365Z,98409.41
2022-09-28T11:07:57.053Z,98387.16
2022-09-28T11:12:59.828Z,98375.63
2022-09-28T11:18:25.325Z,98366.53
2022-09-28T11:23:30.446Z,98349.31
2022-09-28T11:28:36.010Z,98350.69
2022-09-28T11:33:45.128Z,98343.56
2022-09-28T11:38:58.974Z,98350.34
2022-09-28T11:44:18.390Z,98346.94
2022-09-28T11:49:20.010Z,98343.72
2022-09-28T11:54:53.708Z,98350.63
2022-09-28T11:59:59.999Z,98357.06
2022-09-28T12:05:18.391Z,98356.91
2022-09-28T12:10:48.160Z,98348.63
2022-09-28T12:16:23.054Z,98343.41
2022-09-28T12:21:13.997Z,98338.31
2022-09-28T12:26:28.511Z,98327.69
2022-09-28T12:31:46.269Z,98322.56
2022-09-28T12:37:22.966Z,98328.03
2022-09-28T12:42:53.425Z,98319.88
2022-09-28T12:48:57.207Z,98314.50
2022-09-28T12:54:20.537Z,98307.03
2022-09-28T12:59:31.033Z,98283.66
2022-09-28T13:05:08.209Z,98283.31
2022-09-28T13:10:23.656Z,98278.75
2022-09-28T13:15:52.644Z,98286.34
2022-09-28T13:20:54.223Z,98289.69
2022-09-28T13:26:15.061Z,98283.94
2022-09-28T13:31:20.606Z,98283.94
2022-09-28T13:36:36.578Z,98283.47
2022-09-28T13:41:40.460Z,98284.72
2022-09-28T13:47:12.730Z,98285.75
2022-09-28T13:52:39.944Z,98291.69
2022-09-28T13:57:57.392Z,98289.63
2022-09-28T14:03:25.438Z,98280.50
2022-09-28T14:08:33.645Z,98268.50
2022-09-28T14:13:41.239Z,98270.66
2022-09-28T14:18:46.320Z,98270.25
2022-09-28T14:24:06.751Z,98275.78
2022-09-28T14:29:28.832Z,98278.16
2022-09-28T14:34:43.794Z,98275.78
2022-09-28T14:40:05.259Z,98257.00
2022-09-28T14:45:07.407Z,98258.34
2022-09-28T14:50:28.161Z,98254.78
2022-09-28T14:55:38.902Z,98247.56
2022-09-28T15:00:44.588Z,98259.44
2022-09-28T15:05:47.866Z,98252.63
2022-09-28T15:10:50.501Z,98245.81
2022-09-28T15:15:59.631Z,98240.16
2022-09-28T15:21:01.893Z,98254.38
2022-09-28T15:26:08.436Z,98254.03
2022-09-28T15:31:18.184Z,98258.59
2022-09-28T15:36:26.599Z,98267.22
2022-09-28T15:41:28.838Z,98271.59
2022-09-28T15:46:30.423Z,98276.69
2022-09-28T15:51:47.695Z,98289.19
2022-09-28T15:56:55.323Z,98290.22
2022-09-28T16:02:12.195Z,98299.34
2022-09-28T16:07:13.722Z,98302.41
2022-09-28T16:12:15.299Z,98312.50
2022-09-28T16:17:32.388Z,98309.81
2022-09-28T16:22:34.029Z,98305.28
2022-09-28T16:27:42.785Z,98309.13
2022-09-28T16:32:57.984Z,98323.84
2022-09-28T16:38:12.362Z,98314.72
2022-09-28T16:43:36.363Z,98317.41
2022-09-28T16:48:51.892Z,98324.53
2022-09-28T16:54:12.369Z,98341.53
2022-09-28T16:59:14.106Z,98341.84
2022-09-28T17:04:15.744Z,98343.16
2022-09-28T17:09:17.402Z,98356.59
2022-09-28T17:14:18.984Z,98356.75
2022-09-28T17:19:21.774Z,98361.13
2022-09-28T17:24:23.394Z,98362.47
2022-09-28T17:29:25.008Z,98369.03
2022-09-28T17:34:26.687Z,98363.63
2022-09-28T17:39:28.408Z,98378.50
2022-09-28T17:44:29.968Z,98384.22
2022-09-28T17:49:31.660Z,98387.63
2022-09-28T17:54:33.872Z,98389.31
2022-09-28T17:59:35.399Z,98409.06
2022-09-28T18:04:51.362Z,98409.16
2022-09-28T18:09:56.788Z,98422.31
2022-09-28T18:14:58.376Z,98430.66
2022-09-28T18:20:00.008Z,98447.78
2022-09-28T18:25:01.892Z,98447.00
2022-09-28T18:30:05.225Z,98446.88
2022-09-28T18:35:08.842Z,98452.47
2022-09-28T18:40:13.009Z,98450.03
2022-09-28T18:45:17.818Z,98466.34
2022-09-28T18:50:19.432Z,98460.50
2022-09-28T18:55:21.045Z,98471.63
2022-09-28T19:00:22.615Z,98470.25
2022-09-28T19:05:24.232Z,98464.81
2022-09-28T19:10:25.848Z,98478.63
2022-09-28T19:15:27.448Z,98484.00
2022-09-28T19:20:29.056Z,98487.66
2022-09-28T19:25:30.585Z,98490.97
2022-09-28T19:30:32.193Z,98493.28
2022-09-28T19:35:33.716Z,98498.16
2022-09-28T19:40:37.247Z,98494.19
2022-09-28T19:45:39.792Z,98503.94
2022-09-28T19:50:41.681Z,98515.34
2022-09-28T19:55:43.233Z,98525.38
2022-09-28T20:00:44.807Z,98531.38
2022-09-28T20:05:46.921Z,98532.84
2022-09-28T20:10:51.169Z,98545.38
2022-09-28T20:15:52.846Z,98558.75
2022-09-28T20:21:05.166Z,98545.47
2022-09-28T20:26:09.334Z,98551.16
2022-09-28T20:31:15.386Z,98566.47
2022-09-28T20:36:22.264Z,98571.44
2022-09-28T20:41:24.876Z,98587.19
2022-09-28T20:46:26.854Z,98597.59
2022-09-28T20:51:28.571Z,98595.19
2022-09-28T20:56:38.100Z,98607.34
2022-09-28T21:01:40.741Z,98615.56
2022-09-28T21:06:43.083Z,98622.41
2022-09-28T21:11:44.609Z,98621.00
2022-09-28T21:16:46.146Z,98627.28
2022-09-28T21:21:47.758Z,98626.91
2022-09-28T21:26:49.301Z,98633.50
2022-09-28T21:31:50.843Z,98639.16
2022-09-28T21:36:52.650Z,98641.41
2022-09-28T21:41:54.193Z,98641.16
2022-09-28T21:46:55.777Z,98660.69
2022-09-28T21:51:57.350Z,98657.91
2022-09-28T21:57:00.592Z,98660.75
2022-09-28T22:02:02.437Z,98662.78
2022-09-28T22:07:04.018Z,98652.97
2022-09-28T22:12:05.630Z,98665.59
2022-09-28T22:17:07.174Z,98668.16
2022-09-28T22:22:08.937Z,98669.00
2022-09-28T22:27:10.557Z,98676.34
2022-09-28T22:32:12.111Z,98678.78
2022-09-28T22:37:13.680Z,98672.41
2022-09-28T22:42:16.396Z,98675.81
2022-09-28T22:47:17.932Z,98680.38
2022-09-28T22:52:19.472Z,98685.50
2022-09-28T22:57:21.730Z,98689.16
2022-09-28T23:02:23.419Z,98690.19
2022-09-28T23:07:26.257Z,98691.44
2022-09-28T23:12:30.023Z,98694.69
2022-09-28T23:17:31.572Z,98704.22
2022-09-28T23:22:33.236Z,98692.31
2022-09-28T23:27:34.799Z,98695.44
2022-09-28T23:32:36.365Z,98690.34
2022-09-28T23:37:38.137Z,98698.25
2022-09-28T23:42:39.684Z,98699.13
2022-09-28T23:47:41.255Z,98701.66
2022-09-28T23:52:42.794Z,98705.00
2022-09-28T23:57:44.374Z,98703.25
